createdAt,value
2023-03-05T00:00:08.187Z,3.02
2023-03-05T00:00:44.971Z,3.00
2023-03-05T00:01:25.297Z,3.01
2023-03-05T00:01:57.118Z,2.99
2023-03-05T00:02:28.775Z,2.95
2023-03-05T00:03:00.509Z,2.96
2023-03-05T00:03:32.135Z,2.96
2023-03-05T00:04:05.509Z,2.92
2023-03-05T00:04:37.102Z,2.94
2023-03-05T00:05:09.238Z,2.93
2023-03-05T00:05:40.887Z,2.94
2023-03-05T00:06:12.580Z,2.96
2023-03-05T00:06:44.234Z,2.95
2023-03-05T00:07:15.917Z,2.93
2023-03-05T00:07:48.948Z,2.96
2023-03-05T00:08:20.618Z,2.90
2023-03-05T00:08:53.523Z,2.93
2023-03-05T00:09:25.203Z,2.93
2023-03-05T00:10:01.766Z,2.93
2023-03-05T00:10:33.349Z,2.94
2023-03-05T00:11:07.773Z,2.96
2023-03-05T00:11:39.744Z,2.95
2023-03-05T00:12:11.523Z,2.97
2023-03-05T00:12:43.052Z,2.92
2023-03-05T00:13:14.610Z,2.94
2023-03-05T00:13:46.730Z,2.87
2023-03-05T00:14:18.374Z,2.94
2023-03-05T00:14:49.985Z,2.96
2023-03-05T00:15:21.796Z,3.01
2023-03-05T00:15:53.670Z,2.99
2023-03-05T00:16:28.720Z,2.97
2023-03-05T00:17:00.378Z,2.93
2023-03-05T00:17:31.991Z,2.93
2023-03-05T00:18:03.811Z,2.97
2023-03-05T00:18:35.732Z,2.95
2023-03-05T00:19:07.750Z,2.93
2023-03-05T00:19:39.298Z,2.94
2023-03-05T00:20:11.302Z,2.94
2023-03-05T00:20:43.056Z,2.97
2023-03-05T00:21:35.473Z,2.98
2023-03-05T00:22:07.685Z,2.96
2023-03-05T00:22:39.227Z,3.02
2023-03-05T00:23:10.790Z,3.10
2023-03-05T00:23:42.345Z,3.04
2023-03-05T00:24:18.291Z,2.93
2023-03-05T00:24:53.223Z,3.02
2023-03-05T00:25:24.865Z,3.02
2023-03-05T00:25:56.441Z,2.98
2023-03-05T00:26:28.942Z,3.00
2023-03-05T00:27:00.490Z,2.94
2023-03-05T00:27:32.079Z,2.93
2023-03-05T00:28:04.202Z,2.95
2023-03-05T00:28:36.011Z,3.00
2023-03-05T00:29:08.537Z,3.03
2023-03-05T00:29:40.086Z,3.04
2023-03-05T00:30:13.587Z,3.09
2023-03-05T00:30:45.112Z,2.98
2023-03-05T00:31:17.878Z,3.01
2023-03-05T00:31:49.662Z,3.03
2023-03-05T00:32:21.247Z,3.08
2023-03-05T00:32:52.844Z,3.06
2023-03-05T00:33:24.371Z,3.08
2023-03-05T00:33:57.740Z,3.07
2023-03-05T00:34:29.642Z,3.04
2023-03-05T00:35:01.266Z,2.91
2023-03-05T00:35:39.452Z,2.87
2023-03-05T00:36:11.182Z,2.94
2023-03-05T00:36:44.483Z,2.96
2023-03-05T00:37:17.176Z,2.98
2023-03-05T00:37:48.735Z,2.94
2023-03-05T00:38:20.301Z,2.99
2023-03-05T00:38:52.448Z,2.97
2023-03-05T00:39:24.063Z,2.98
2023-03-05T00:39:55.638Z,2.99
2023-03-05T00:40:27.175Z,2.92
2023-03-05T00:40:58.761Z,2.91
2023-03-05T00:41:30.395Z,2.93
2023-03-05T00:42:02.382Z,2.92
2023-03-05T00:42:38.557Z,2.92
2023-03-05T00:43:10.744Z,2.93
2023-03-05T00:43:42.573Z,2.90
2023-03-05T00:44:14.123Z,2.84
2023-03-05T00:44:45.668Z,2.86
2023-03-05T00:45:17.331Z,2.86
2023-03-05T00:45:48.868Z,2.90
2023-03-05T00:46:20.581Z,2.92
2023-03-05T00:46:52.253Z,2.88
2023-03-05T00:47:23.894Z,2.91
2023-03-05T00:47:55.637Z,2.92
2023-03-05T00:48:27.813Z,2.96
2023-03-05T00:49:00.036Z,2.94
2023-03-05T00:49:31.576Z,2.93
2023-03-05T00:50:04.403Z,2.94
2023-03-05T00:50:37.174Z,2.91
2023-03-05T00:51:09.312Z,2.96
2023-03-05T00:51:41.327Z,3.02
2023-03-05T00:52:12.896Z,3.05
2023-03-05T00:52:44.638Z,3.03
2023-03-05T00:53:16.186Z,3.01
2023-03-05T00:53:47.853Z,3.04
2023-03-05T00:54:19.561Z,3.02
2023-03-05T00:54:51.097Z,3.05
2023-03-05T00:55:22.896Z,2.96
2023-03-05T00:55:54.597Z,2.99
2023-03-05T00:56:26.176Z,3.01
2023-03-05T00:56:57.882Z,2.99
2023-03-05T00:57:29.456Z,3.03
2023-03-05T00:58:01.041Z,3.05
2023-03-05T00:58:32.818Z,2.91
2023-03-05T00:59:04.381Z,2.95
2023-03-05T00:59:36.974Z,2.99
2023-03-05T01:00:09.537Z,3.00
2023-03-05T01:00:41.477Z,2.93
2023-03-05T01:01:13.478Z,2.96
2023-03-05T01:01:45.244Z,3.01
2023-03-05T01:02:16.946Z,2.97
2023-03-05T01:02:48.535Z,2.95
2023-03-05T01:03:20.213Z,2.88
2023-03-05T01:03:56.331Z,2.93
2023-03-05T01:04:27.948Z,2.93
2023-03-05T01:04:59.551Z,2.98
2023-03-05T01:05:31.348Z,2.98
2023-03-05T01:06:08.441Z,2.93
2023-03-05T01:06:44.591Z,2.96
2023-03-05T01:07:17.438Z,2.97
2023-03-05T01:07:52.720Z,2.98
2023-03-05T01:08:24.717Z,2.98
2023-03-05T01:08:56.707Z,2.97
2023-03-05T01:09:28.544Z,2.91
2023-03-05T01:10:00.612Z,2.91
2023-03-05T01:10:32.561Z,2.94
2023-03-05T01:11:05.124Z,2.99
2023-03-05T01:11:36.739Z,2.94
2023-03-05T01:12:08.576Z,2.91
2023-03-05T01:12:40.472Z,2.93
2023-03-05T01:13:12.017Z,3.00
2023-03-05T01:13:43.657Z,3.00
2023-03-05T01:14:15.203Z,2.96
2023-03-05T01:14:46.812Z,2.98
2023-03-05T01:15:18.438Z,2.99
2023-03-05T01:15:51.074Z,2.93
2023-03-05T01:16:22.884Z,2.89
2023-03-05T01:16:54.776Z,2.96
2023-03-05T01:17:26.430Z,2.97
2023-03-05T01:17:58.031Z,3.00
2023-03-05T01:18:29.637Z,3.00
2023-03-05T01:19:01.177Z,3.06
2023-03-05T01:19:32.748Z,3.03
2023-03-05T01:20:05.704Z,3.10
2023-03-05T01:20:37.910Z,3.12
2023-03-05T01:21:09.772Z,3.06
2023-03-05T01:21:42.220Z,3.10
2023-03-05T01:22:14.114Z,3.12
2023-03-05T01:22:45.678Z,3.17
2023-03-05T01:23:17.405Z,3.16
2023-03-05T01:23:49.130Z,3.08
2023-03-05T01:24:21.650Z,3.12
2023-03-05T01:24:53.309Z,3.10
2023-03-05T01:25:25.388Z,3.07
2023-03-05T01:25:59.321Z,3.05
2023-03-05T01:26:31.677Z,3.12
2023-03-05T01:27:03.258Z,3.12
2023-03-05T01:27:35.110Z,3.09
2023-03-05T01:28:07.044Z,3.13
2023-03-05T01:28:39.851Z,3.04
2023-03-05T01:29:11.982Z,3.03
2023-03-05T01:29:43.511Z,3.07
2023-03-05T01:30:15.789Z,3.07
2023-03-05T01:30:47.382Z,2.94
2023-03-05T01:31:19.123Z,3.00
2023-03-05T01:31:50.898Z,3.02
2023-03-05T01:32:22.547Z,2.96
2023-03-05T01:32:55.292Z,2.96
2023-03-05T01:33:26.846Z,2.92
2023-03-05T01:34:00.199Z,2.94
2023-03-05T01:34:31.930Z,2.94
2023-03-05T01:35:05.539Z,2.98
2023-03-05T01:35:37.240Z,2.98
2023-03-05T01:36:14.782Z,2.97
2023-03-05T01:36:46.563Z,2.97
2023-03-05T01:37:18.117Z,2.96
2023-03-05T01:37:49.774Z,2.98
2023-03-05T01:38:21.300Z,3.03
2023-03-05T01:38:53.018Z,3.00
2023-03-05T01:39:25.409Z,3.01
2023-03-05T01:39:57.056Z,2.96
2023-03-05T01:40:30.128Z,2.99
2023-03-05T01:41:01.750Z,2.95
2023-03-05T01:41:34.078Z,2.97
2023-03-05T01:42:06.224Z,2.96
2023-03-05T01:42:37.755Z,2.96
2023-03-05T01:43:12.097Z,2.93
2023-03-05T01:43:44.374Z,2.93
2023-03-05T01:44:27.983Z,2.94
2023-03-05T01:45:02.743Z,2.95
2023-03-05T01:45:34.455Z,2.98
2023-03-05T01:46:29.137Z,2.99
2023-03-05T01:47:00.805Z,3.00
2023-03-05T01:47:32.353Z,2.99
2023-03-05T01:48:04.192Z,2.95
2023-03-05T01:48:35.763Z,2.97
2023-03-05T01:49:13.329Z,3.02
2023-03-05T01:49:44.907Z,3.00
2023-03-05T01:50:19.081Z,3.05
2023-03-05T01:50:50.678Z,3.01
2023-03-05T01:51:25.920Z,2.98
2023-03-05T01:52:17.649Z,2.95
2023-03-05T01:53:00.302Z,2.94
2023-03-05T01:53:32.001Z,2.94
2023-03-05T01:54:05.984Z,2.88
2023-03-05T01:54:41.774Z,2.92
2023-03-05T01:55:26.773Z,2.88
2023-03-05T01:55:58.431Z,2.87
2023-03-05T01:56:30.996Z,2.79
2023-03-05T01:57:09.271Z,2.84
2023-03-05T01:57:46.676Z,2.85
2023-03-05T01:58:18.632Z,2.82
2023-03-05T01:58:51.290Z,2.86
2023-03-05T01:59:23.542Z,2.89
2023-03-05T01:59:58.344Z,2.95
2023-03-05T02:00:33.950Z,2.95
2023-03-05T02:01:05.795Z,2.97
2023-03-05T02:01:40.481Z,2.95
2023-03-05T02:02:13.025Z,2.83
2023-03-05T02:02:45.636Z,2.86
2023-03-05T02:03:17.213Z,2.87
2023-03-05T02:03:48.850Z,2.90
2023-03-05T02:04:22.220Z,2.91
2023-03-05T02:05:03.760Z,2.93
2023-03-05T02:05:38.146Z,2.94
2023-03-05T02:06:10.775Z,2.90
2023-03-05T02:06:43.047Z,2.88
2023-03-05T02:07:15.995Z,2.93
2023-03-05T02:07:47.805Z,2.95
2023-03-05T02:08:21.781Z,2.91
2023-03-05T02:08:53.430Z,2.94
2023-03-05T02:09:27.027Z,2.93
2023-03-05T02:09:58.594Z,2.86
2023-03-05T02:10:53.583Z,2.83
2023-03-05T02:11:28.293Z,2.87
2023-03-05T02:11:59.848Z,2.84
2023-03-05T02:12:31.399Z,2.79
2023-03-05T02:13:07.039Z,2.82
2023-03-05T02:13:40.717Z,2.88
2023-03-05T02:14:12.303Z,2.85
2023-03-05T02:14:48.224Z,2.87
2023-03-05T02:15:20.192Z,2.85
2023-03-05T02:15:53.415Z,2.88
2023-03-05T02:16:25.100Z,2.86
2023-03-05T02:16:56.928Z,2.92
2023-03-05T02:17:28.604Z,2.87
2023-03-05T02:18:01.366Z,2.81
2023-03-05T02:18:32.978Z,2.79
2023-03-05T02:19:06.797Z,2.85
2023-03-05T02:19:48.567Z,2.92
2023-03-05T02:20:25.906Z,2.97
2023-03-05T02:20:57.522Z,2.92
2023-03-05T02:21:37.072Z,2.90
2023-03-05T02:22:14.864Z,2.82
2023-03-05T02:22:46.634Z,2.81
2023-03-05T02:23:20.128Z,2.85
2023-03-05T02:23:51.655Z,2.92
2023-03-05T02:24:35.689Z,2.87
2023-03-05T02:25:23.148Z,2.84
2023-03-05T02:25:55.295Z,2.89
2023-03-05T02:26:26.951Z,2.83
2023-03-05T02:26:58.781Z,2.84
2023-03-05T02:27:35.097Z,2.88
2023-03-05T02:28:12.400Z,2.90
2023-03-05T02:28:50.120Z,2.98
2023-03-05T02:29:21.666Z,2.84
2023-03-05T02:29:53.320Z,2.82
2023-03-05T02:30:25.183Z,2.73
2023-03-05T02:30:56.767Z,2.74
2023-03-05T02:31:28.409Z,2.75
2023-03-05T02:32:01.216Z,2.69
2023-03-05T02:32:33.027Z,2.73
2023-03-05T02:33:05.314Z,2.74
2023-03-05T02:33:37.137Z,2.74
2023-03-05T02:34:10.601Z,2.80
2023-03-05T02:34:42.277Z,2.75
2023-03-05T02:35:14.367Z,2.74
2023-03-05T02:35:46.741Z,2.70
2023-03-05T02:36:18.945Z,2.69
2023-03-05T02:36:50.801Z,2.78
2023-03-05T02:37:22.798Z,2.76
2023-03-05T02:37:56.456Z,2.77
2023-03-05T02:38:28.089Z,2.81
2023-03-05T02:38:59.737Z,2.84
2023-03-05T02:39:31.960Z,2.84
2023-03-05T02:40:03.842Z,2.86
2023-03-05T02:40:35.730Z,2.75
2023-03-05T02:41:07.326Z,2.77
2023-03-05T02:41:39.382Z,2.75
2023-03-05T02:42:11.041Z,2.81
2023-03-05T02:42:43.588Z,2.84
2023-03-05T02:43:16.952Z,2.86
2023-03-05T02:43:48.705Z,2.91
2023-03-05T02:44:20.239Z,2.87
2023-03-05T02:44:51.848Z,2.75
2023-03-05T02:45:23.429Z,2.78
2023-03-05T02:45:55.183Z,2.83
2023-03-05T02:46:26.923Z,2.87
2023-03-05T02:46:58.613Z,2.84
2023-03-05T02:47:30.380Z,2.73
2023-03-05T02:48:01.993Z,2.71
2023-03-05T02:48:34.080Z,2.78
2023-03-05T02:49:05.699Z,2.82
2023-03-05T02:49:37.298Z,2.84
2023-03-05T02:50:10.436Z,2.86
2023-03-05T02:50:43.073Z,2.84
2023-03-05T02:51:16.200Z,2.78
2023-03-05T02:51:49.145Z,2.81
2023-03-05T02:52:23.308Z,2.83
2023-03-05T02:52:56.143Z,2.76
2023-03-05T02:53:27.677Z,2.77
2023-03-05T02:53:59.262Z,2.76
2023-03-05T02:54:32.591Z,2.78
2023-03-05T02:55:04.775Z,2.79
2023-03-05T02:55:36.310Z,2.73
2023-03-05T02:56:07.863Z,2.72
2023-03-05T02:56:40.642Z,2.75
2023-03-05T02:57:12.228Z,2.81
2023-03-05T02:57:43.933Z,2.88
2023-03-05T02:58:16.664Z,2.92
2023-03-05T02:58:48.199Z,2.93
2023-03-05T02:59:19.720Z,2.87
2023-03-05T02:59:51.455Z,2.91
2023-03-05T03:00:23.270Z,2.93
2023-03-05T03:00:54.881Z,2.95
2023-03-05T03:01:28.469Z,2.90
2023-03-05T03:02:00.366Z,2.78
2023-03-05T03:02:32.279Z,2.79
2023-03-05T03:03:03.960Z,2.85
2023-03-05T03:03:36.283Z,2.94
2023-03-05T03:04:07.790Z,2.90
2023-03-05T03:04:39.344Z,2.92
2023-03-05T03:05:10.935Z,2.91
2023-03-05T03:05:42.548Z,2.91
2023-03-05T03:06:14.118Z,2.86
2023-03-05T03:06:45.635Z,2.87
2023-03-05T03:07:17.193Z,2.94
2023-03-05T03:07:49.276Z,2.91
2023-03-05T03:08:20.842Z,2.89
2023-03-05T03:08:52.456Z,2.91
2023-03-05T03:09:24.057Z,2.93
2023-03-05T03:09:55.746Z,2.87
2023-03-05T03:10:27.382Z,2.90
2023-03-05T03:11:08.553Z,2.95
2023-03-05T03:11:40.085Z,2.86
2023-03-05T03:12:12.298Z,2.84
2023-03-05T03:12:45.053Z,2.89
2023-03-05T03:13:16.631Z,2.85
2023-03-05T03:13:48.196Z,2.86
2023-03-05T03:14:20.361Z,2.91
2023-03-05T03:14:51.935Z,2.88
2023-03-05T03:15:23.605Z,2.81
2023-03-05T03:16:06.549Z,2.82
2023-03-05T03:16:38.178Z,2.84
2023-03-05T03:17:12.529Z,2.87
2023-03-05T03:17:44.821Z,2.93
2023-03-05T03:18:16.401Z,2.90
2023-03-05T03:18:48.917Z,2.85
2023-03-05T03:19:20.586Z,2.89
2023-03-05T03:19:52.179Z,2.90
2023-03-05T03:20:24.282Z,2.83
2023-03-05T03:20:55.783Z,2.84
2023-03-05T03:21:27.396Z,2.88
2023-03-05T03:21:59.009Z,2.89
2023-03-05T03:22:30.546Z,2.91
2023-03-05T03:23:02.431Z,2.93
2023-03-05T03:23:34.493Z,2.84
2023-03-05T03:24:06.365Z,2.83
2023-03-05T03:24:39.402Z,2.78
2023-03-05T03:25:14.650Z,2.82
2023-03-05T03:25:46.169Z,2.83
2023-03-05T03:26:18.010Z,2.79
2023-03-05T03:26:50.007Z,2.78
2023-03-05T03:27:21.961Z,2.84
2023-03-05T03:27:53.510Z,2.85
2023-03-05T03:28:25.350Z,2.85
2023-03-05T03:28:57.635Z,2.82
2023-03-05T03:29:29.637Z,2.82
2023-03-05T03:30:04.663Z,2.74
2023-03-05T03:30:36.215Z,2.77
2023-03-05T03:31:08.119Z,2.76
2023-03-05T03:31:41.321Z,2.77
2023-03-05T03:32:13.000Z,2.83
2023-03-05T03:32:44.835Z,2.87
2023-03-05T03:33:18.165Z,2.82
2023-03-05T03:33:49.860Z,2.72
2023-03-05T03:34:21.511Z,2.74
2023-03-05T03:34:53.082Z,2.78
2023-03-05T03:35:24.677Z,2.85
2023-03-05T03:35:56.377Z,2.77
2023-03-05T03:36:28.013Z,2.81
2023-03-05T03:36:59.525Z,2.81
2023-03-05T03:37:31.637Z,2.72
2023-03-05T03:38:03.289Z,2.70
2023-03-05T03:38:34.832Z,2.76
2023-03-05T03:39:06.346Z,2.68
2023-03-05T03:39:37.873Z,2.66
2023-03-05T03:40:11.144Z,2.69
2023-03-05T03:40:42.711Z,2.65
2023-03-05T03:41:14.359Z,2.63
2023-03-05T03:41:50.376Z,2.64
2023-03-05T03:42:22.870Z,2.67
2023-03-05T03:42:54.650Z,2.63
2023-03-05T03:43:26.203Z,2.67
2023-03-05T03:43:57.803Z,2.64
2023-03-05T03:44:29.343Z,2.67
2023-03-05T03:45:02.253Z,2.70
2023-03-05T03:45:33.950Z,2.70
2023-03-05T03:46:07.058Z,2.67
2023-03-05T03:46:40.652Z,2.66
2023-03-05T03:47:12.244Z,2.70
2023-03-05T03:47:43.735Z,2.69
2023-03-05T03:48:15.366Z,2.70
2023-03-05T03:48:50.212Z,2.73
2023-03-05T03:49:26.411Z,2.66
2023-03-05T03:49:58.968Z,2.59
2023-03-05T03:50:30.653Z,2.66
2023-03-05T03:51:05.079Z,2.70
2023-03-05T03:51:36.641Z,2.71
2023-03-05T03:52:08.610Z,2.72
2023-03-05T03:52:40.130Z,2.72
2023-03-05T03:53:14.493Z,2.73
2023-03-05T03:53:46.100Z,2.73
2023-03-05T03:54:18.823Z,2.73
2023-03-05T03:54:52.420Z,2.69
2023-03-05T03:55:24.061Z,2.68
2023-03-05T03:55:58.815Z,2.73
2023-03-05T03:56:30.461Z,2.72
2023-03-05T03:57:02.003Z,2.64
2023-03-05T03:57:33.791Z,2.62
2023-03-05T03:58:05.350Z,2.66
2023-03-05T03:58:36.889Z,2.64
2023-03-05T03:59:08.640Z,2.62
2023-03-05T03:59:40.236Z,2.66
2023-03-05T04:00:12.332Z,2.62
2023-03-05T04:00:43.900Z,2.63
2023-03-05T04:01:15.396Z,2.68
2023-03-05T04:01:47.858Z,2.70
2023-03-05T04:02:19.479Z,2.71
2023-03-05T04:02:51.153Z,2.75
2023-03-05T04:03:22.760Z,2.81
2023-03-05T04:03:54.365Z,2.76
2023-03-05T04:04:26.647Z,2.69
2023-03-05T04:04:58.516Z,2.72
2023-03-05T04:05:30.658Z,2.70
2023-03-05T04:06:02.320Z,2.73
2023-03-05T04:06:34.517Z,2.73
2023-03-05T04:07:06.083Z,2.67
2023-03-05T04:07:37.718Z,2.74
2023-03-05T04:08:12.084Z,2.68
2023-03-05T04:08:43.707Z,2.78
2023-03-05T04:09:15.275Z,2.81
2023-03-05T04:09:46.817Z,2.81
2023-03-05T04:10:18.782Z,2.78
2023-03-05T04:10:50.394Z,2.81
2023-03-05T04:11:22.141Z,2.79
2023-03-05T04:11:53.738Z,2.76
2023-03-05T04:12:25.309Z,2.79
2023-03-05T04:12:56.903Z,2.76
2023-03-05T04:13:28.838Z,2.75
2023-03-05T04:14:00.808Z,2.68
2023-03-05T04:14:32.422Z,2.61
2023-03-05T04:15:05.801Z,2.66
2023-03-05T04:15:37.365Z,2.73
2023-03-05T04:16:08.987Z,2.76
2023-03-05T04:16:40.712Z,2.81
2023-03-05T04:17:12.835Z,2.83
2023-03-05T04:17:44.492Z,2.85
2023-03-05T04:18:16.025Z,2.81
2023-03-05T04:18:47.971Z,2.84
2023-03-05T04:19:19.549Z,2.76
2023-03-05T04:19:51.145Z,2.77
2023-03-05T04:20:22.684Z,2.77
2023-03-05T04:20:54.244Z,2.74
2023-03-05T04:21:25.841Z,2.73
2023-03-05T04:21:58.866Z,2.71
2023-03-05T04:22:30.438Z,2.69
2023-03-05T04:23:02.002Z,2.68
2023-03-05T04:23:33.638Z,2.68
2023-03-05T04:24:05.788Z,2.67
2023-03-05T04:24:38.211Z,2.62
2023-03-05T04:25:10.268Z,2.62
2023-03-05T04:25:41.843Z,2.65
2023-03-05T04:26:15.707Z,2.62
2023-03-05T04:26:47.994Z,2.65
2023-03-05T04:27:19.533Z,2.67
2023-03-05T04:27:51.152Z,2.67
2023-03-05T04:28:22.677Z,2.66
2023-03-05T04:28:54.208Z,2.68
2023-03-05T04:29:26.161Z,2.71
2023-03-05T04:29:57.729Z,2.75
2023-03-05T04:30:29.325Z,2.65
2023-03-05T04:31:01.309Z,2.66
2023-03-05T04:31:32.928Z,2.68
2023-03-05T04:32:04.899Z,2.65
2023-03-05T04:32:36.558Z,2.69
2023-03-05T04:33:08.229Z,2.76
2023-03-05T04:33:39.807Z,2.80
2023-03-05T04:34:11.380Z,2.79
2023-03-05T04:34:42.885Z,2.83
2023-03-05T04:35:14.515Z,2.71
2023-03-05T04:35:46.164Z,2.66
2023-03-05T04:36:17.786Z,2.63
2023-03-05T04:36:49.412Z,2.68
2023-03-05T04:37:21.038Z,2.60
2023-03-05T04:37:52.594Z,2.62
2023-03-05T04:38:24.175Z,2.62
2023-03-05T04:38:55.703Z,2.64
2023-03-05T04:39:27.466Z,2.66
2023-03-05T04:39:59.023Z,2.58
2023-03-05T04:40:30.758Z,2.62
2023-03-05T04:41:02.329Z,2.64
2023-03-05T04:41:33.929Z,2.65
2023-03-05T04:42:05.750Z,2.59
2023-03-05T04:42:37.530Z,2.64
2023-03-05T04:43:09.056Z,2.63
2023-03-05T04:43:40.616Z,2.60
2023-03-05T04:44:12.137Z,2.59
2023-03-05T04:44:43.692Z,2.60
2023-03-05T04:45:17.225Z,2.57
2023-03-05T04:45:48.784Z,2.61
2023-03-05T04:46:21.075Z,2.64
2023-03-05T04:46:52.813Z,2.60
2023-03-05T04:47:24.433Z,2.56
2023-03-05T04:47:55.997Z,2.50
2023-03-05T04:48:27.528Z,2.47
2023-03-05T04:48:59.459Z,2.49
2023-03-05T04:49:31.028Z,2.46
2023-03-05T04:50:04.504Z,2.48
2023-03-05T04:50:36.322Z,2.53
2023-03-05T04:51:07.843Z,2.59
2023-03-05T04:51:39.498Z,2.56
2023-03-05T04:52:12.534Z,2.54
2023-03-05T04:52:45.514Z,2.54
2023-03-05T04:53:17.205Z,2.51
2023-03-05T04:53:48.923Z,2.50
2023-03-05T04:54:20.510Z,2.50
2023-03-05T04:54:52.109Z,2.57
2023-03-05T04:55:23.801Z,2.54
2023-03-05T04:55:56.058Z,2.53
2023-03-05T04:56:27.683Z,2.55
2023-03-05T04:56:59.348Z,2.55
2023-03-05T04:57:30.858Z,2.59
2023-03-05T04:58:02.446Z,2.63
2023-03-05T04:58:33.988Z,2.54
2023-03-05T04:59:05.484Z,2.61
2023-03-05T04:59:38.015Z,2.60
2023-03-05T05:00:14.425Z,2.64
2023-03-05T05:00:46.214Z,2.66
2023-03-05T05:01:18.033Z,2.69
2023-03-05T05:01:49.646Z,2.68
2023-03-05T05:02:21.241Z,2.58
2023-03-05T05:02:53.400Z,2.59
2023-03-05T05:03:24.954Z,2.61
2023-03-05T05:03:56.635Z,2.58
2023-03-05T05:04:28.244Z,2.68
2023-03-05T05:05:00.312Z,2.68
2023-03-05T05:05:31.870Z,2.63
2023-03-05T05:06:03.625Z,2.63
2023-03-05T05:06:36.145Z,2.66
2023-03-05T05:07:07.854Z,2.68
2023-03-05T05:07:39.432Z,2.67
2023-03-05T05:08:11.176Z,2.62
2023-03-05T05:08:43.436Z,2.60
2023-03-05T05:09:15.295Z,2.63
2023-03-05T05:09:46.918Z,2.63
2023-03-05T05:10:18.536Z,2.59
2023-03-05T05:11:07.305Z,2.67
2023-03-05T05:11:40.015Z,2.70
2023-03-05T05:12:11.577Z,2.59
2023-03-05T05:12:43.167Z,2.62
2023-03-05T05:13:14.692Z,2.62
2023-03-05T05:13:46.324Z,2.62
2023-03-05T05:14:18.052Z,2.56
2023-03-05T05:14:49.645Z,2.56
2023-03-05T05:15:21.540Z,2.53
2023-03-05T05:15:53.398Z,2.52
2023-03-05T05:16:25.137Z,2.60
2023-03-05T05:16:56.891Z,2.63
2023-03-05T05:17:30.952Z,2.61
2023-03-05T05:18:02.580Z,2.58
2023-03-05T05:18:34.117Z,2.60
2023-03-05T05:19:05.693Z,2.60
2023-03-05T05:19:37.360Z,2.58
2023-03-05T05:20:11.752Z,2.66
2023-03-05T05:20:43.376Z,2.68
2023-03-05T05:21:15.204Z,2.67
2023-03-05T05:21:46.888Z,2.56
2023-03-05T05:22:18.576Z,2.58
2023-03-05T05:22:50.208Z,2.58
2023-03-05T05:23:21.983Z,2.56
2023-03-05T05:23:53.542Z,2.55
2023-03-05T05:24:25.270Z,2.59
2023-03-05T05:24:56.883Z,2.53
2023-03-05T05:25:28.382Z,2.55
2023-03-05T05:26:01.344Z,2.51
2023-03-05T05:26:32.912Z,2.56
2023-03-05T05:27:04.472Z,2.51
2023-03-05T05:27:36.679Z,2.44
2023-03-05T05:28:08.210Z,2.46
2023-03-05T05:28:42.899Z,2.52
2023-03-05T05:29:14.459Z,2.53
2023-03-05T05:29:50.180Z,2.52
2023-03-05T05:30:21.757Z,2.47
2023-03-05T05:30:54.011Z,2.43
2023-03-05T05:31:25.794Z,2.44
2023-03-05T05:31:57.440Z,2.45
2023-03-05T05:32:29.096Z,2.43
2023-03-05T05:33:00.752Z,2.45
2023-03-05T05:33:32.318Z,2.41
2023-03-05T05:34:03.906Z,2.42
2023-03-05T05:34:35.442Z,2.41
2023-03-05T05:35:07.410Z,2.42
2023-03-05T05:35:39.860Z,2.44
2023-03-05T05:36:15.345Z,2.48
2023-03-05T05:36:46.859Z,2.42
2023-03-05T05:37:18.358Z,2.36
2023-03-05T05:37:49.915Z,2.40
2023-03-05T05:38:21.467Z,2.44
2023-03-05T05:38:53.083Z,2.41
2023-03-05T05:39:24.728Z,2.46
2023-03-05T05:39:56.319Z,2.44
2023-03-05T05:40:27.821Z,2.43
2023-03-05T05:41:05.155Z,2.48
2023-03-05T05:41:36.704Z,2.51
2023-03-05T05:42:08.430Z,2.41
2023-03-05T05:42:40.089Z,2.51
2023-03-05T05:43:11.651Z,2.48
2023-03-05T05:43:43.671Z,2.50
2023-03-05T05:44:15.190Z,2.48
2023-03-05T05:44:47.615Z,2.50
2023-03-05T05:45:19.275Z,2.48
2023-03-05T05:45:50.930Z,2.49
2023-03-05T05:46:23.257Z,2.43
2023-03-05T05:46:54.839Z,2.43
2023-03-05T05:47:26.562Z,2.43
2023-03-05T05:47:58.549Z,2.41
2023-03-05T05:48:31.391Z,2.38
2023-03-05T05:49:02.968Z,2.43
2023-03-05T05:49:34.564Z,2.43
2023-03-05T05:50:07.779Z,2.41
2023-03-05T05:50:39.658Z,2.40
2023-03-05T05:51:20.241Z,2.46
2023-03-05T05:51:51.778Z,2.52
2023-03-05T05:52:23.356Z,2.49
2023-03-05T05:52:54.910Z,2.48
2023-03-05T05:53:26.575Z,2.44
2023-03-05T05:53:58.110Z,2.45
2023-03-05T05:54:29.649Z,2.46
2023-03-05T05:55:01.240Z,2.50
2023-03-05T05:55:32.775Z,2.45
2023-03-05T05:56:05.999Z,2.43
2023-03-05T05:56:37.578Z,2.47
2023-03-05T05:57:09.328Z,2.47
2023-03-05T05:57:41.014Z,2.46
2023-03-05T05:58:12.600Z,2.50
2023-03-05T05:58:47.130Z,2.42
2023-03-05T05:59:18.786Z,2.42
2023-03-05T05:59:50.366Z,2.46
2023-03-05T06:00:22.281Z,2.44
2023-03-05T06:00:53.806Z,2.40
2023-03-05T06:01:28.299Z,2.46
2023-03-05T06:02:00.217Z,2.43
2023-03-05T06:02:31.909Z,2.45
2023-03-05T06:03:04.138Z,2.50
2023-03-05T06:03:35.761Z,2.55
2023-03-05T06:04:07.468Z,2.47
2023-03-05T06:04:40.284Z,2.44
2023-03-05T06:05:13.429Z,2.40
2023-03-05T06:05:44.989Z,2.41
2023-03-05T06:06:18.658Z,2.44
2023-03-05T06:06:50.273Z,2.44
2023-03-05T06:07:21.776Z,2.40
2023-03-05T06:07:53.499Z,2.39
2023-03-05T06:08:25.023Z,2.38
2023-03-05T06:08:56.655Z,2.37
2023-03-05T06:09:28.193Z,2.33
2023-03-05T06:09:59.710Z,2.39
2023-03-05T06:10:31.235Z,2.39
2023-03-05T06:11:02.768Z,2.37
2023-03-05T06:11:34.372Z,2.44
2023-03-05T06:12:06.763Z,2.40
2023-03-05T06:12:38.300Z,2.38
2023-03-05T06:13:10.199Z,2.48
2023-03-05T06:13:41.890Z,2.44
2023-03-05T06:14:13.525Z,2.37
2023-03-05T06:14:45.164Z,2.36
2023-03-05T06:15:16.956Z,2.41
2023-03-05T06:16:03.510Z,2.45
2023-03-05T06:16:35.370Z,2.41
2023-03-05T06:17:07.256Z,2.40
2023-03-05T06:17:39.091Z,2.43
2023-03-05T06:18:10.607Z,2.43
2023-03-05T06:18:42.509Z,2.44
2023-03-05T06:19:15.447Z,2.43
2023-03-05T06:19:47.019Z,2.50
2023-03-05T06:20:19.070Z,2.55
2023-03-05T06:21:05.424Z,2.44
2023-03-05T06:21:37.175Z,2.40
2023-03-05T06:22:08.992Z,2.40
2023-03-05T06:22:40.551Z,2.41
2023-03-05T06:23:12.089Z,2.42
2023-03-05T06:23:44.778Z,2.44
2023-03-05T06:24:16.382Z,2.40
2023-03-05T06:24:48.356Z,2.45
2023-03-05T06:25:19.898Z,2.43
2023-03-05T06:25:51.979Z,2.40
2023-03-05T06:26:23.598Z,2.36
2023-03-05T06:26:55.126Z,2.43
2023-03-05T06:27:26.666Z,2.37
2023-03-05T06:27:58.369Z,2.43
2023-03-05T06:28:30.487Z,2.48
2023-03-05T06:29:02.416Z,2.40
2023-03-05T06:29:33.966Z,2.44
2023-03-05T06:30:06.624Z,2.45
2023-03-05T06:30:38.276Z,2.38
2023-03-05T06:31:15.474Z,2.52
2023-03-05T06:31:47.068Z,2.56
2023-03-05T06:32:18.719Z,2.51
2023-03-05T06:32:50.273Z,2.60
2023-03-05T06:33:21.787Z,2.66
2023-03-05T06:33:55.836Z,2.62
2023-03-05T06:34:27.383Z,2.57
2023-03-05T06:34:58.986Z,2.53
2023-03-05T06:35:30.538Z,2.51
2023-03-05T06:36:10.112Z,2.48
2023-03-05T06:36:43.600Z,2.53
2023-03-05T06:37:15.183Z,2.57
2023-03-05T06:37:46.780Z,2.58
2023-03-05T06:38:18.318Z,2.57
2023-03-05T06:38:53.190Z,2.58
2023-03-05T06:39:25.015Z,2.56
2023-03-05T06:39:56.631Z,2.60
2023-03-05T06:40:28.207Z,2.62
2023-03-05T06:41:11.745Z,2.65
2023-03-05T06:41:44.627Z,2.61
2023-03-05T06:42:17.826Z,2.62
2023-03-05T06:42:49.383Z,2.58
2023-03-05T06:43:21.214Z,2.62
2023-03-05T06:43:53.035Z,2.77
2023-03-05T06:44:25.742Z,2.68
2023-03-05T06:44:57.366Z,2.74
2023-03-05T06:45:29.019Z,2.83
2023-03-05T06:46:08.895Z,2.78
2023-03-05T06:46:40.486Z,2.80
2023-03-05T06:47:12.263Z,2.71
2023-03-05T06:47:43.820Z,2.70
2023-03-05T06:48:15.492Z,2.70
2023-03-05T06:48:47.696Z,2.59
2023-03-05T06:49:19.337Z,2.62
2023-03-05T06:49:50.886Z,2.67
2023-03-05T06:50:22.523Z,2.55
2023-03-05T06:50:54.109Z,2.61
2023-03-05T06:51:30.928Z,2.65
2023-03-05T06:52:02.734Z,2.54
2023-03-05T06:52:34.310Z,2.40
2023-03-05T06:53:05.877Z,2.55
2023-03-05T06:53:37.422Z,2.61
2023-03-05T06:54:13.728Z,2.75
2023-03-05T06:54:45.494Z,2.54
2023-03-05T06:55:18.319Z,2.48
2023-03-05T06:55:50.249Z,2.47
2023-03-05T06:56:22.483Z,2.42
2023-03-05T06:56:54.037Z,2.52
2023-03-05T06:57:25.639Z,2.53
2023-03-05T06:57:57.174Z,2.52
2023-03-05T06:58:28.728Z,2.42
2023-03-05T06:59:00.352Z,2.36
2023-03-05T06:59:32.082Z,2.39
2023-03-05T07:00:11.490Z,2.50
2023-03-05T07:00:44.485Z,2.60
2023-03-05T07:01:16.487Z,2.54
2023-03-05T07:01:48.554Z,2.49
2023-03-05T07:02:20.645Z,2.47
2023-03-05T07:02:52.206Z,2.47
2023-03-05T07:03:23.963Z,2.35
2023-03-05T07:03:58.994Z,2.48
2023-03-05T07:04:30.496Z,2.45
2023-03-05T07:05:02.068Z,2.39
2023-03-05T07:05:34.313Z,2.37
2023-03-05T07:06:07.884Z,2.35
2023-03-05T07:06:39.822Z,2.40
2023-03-05T07:07:11.404Z,2.33
2023-03-05T07:07:42.927Z,2.41
2023-03-05T07:08:14.510Z,2.42
2023-03-05T07:08:46.340Z,2.44
2023-03-05T07:09:17.952Z,2.38
2023-03-05T07:09:50.349Z,2.38
2023-03-05T07:10:21.873Z,2.44
2023-03-05T07:10:53.481Z,2.45
2023-03-05T07:11:25.730Z,2.43
2023-03-05T07:11:57.326Z,2.44
2023-03-05T07:12:29.033Z,2.57
2023-03-05T07:13:00.597Z,2.58